Time;durP1;ratioP1;P1;durP2;ratioP2;P2;SDS_P1;SDS_P2;PMS_P1;PMS_P2;Temp;Humidity;BMP_temperature;BMP_pressure;BME280_temperature;BME280_humidity;BME280_pressure;Samples;Min_cycle;Max_cycle;Signal;HPM_P1;HPM_P2
2021/08/13 00:01:26;;;;;;;0.40;0.20;;;20.70;99.90;;;;;;5090113;28;20377;-75
2021/08/13 00:03:52;;;;;;;0.40;0.20;;;20.80;99.90;;;;;;5091156;28;20434;-76
2021/08/13 00:06:17;;;;;;;0.40;0.20;;;20.60;99.90;;;;;;5090386;28;20417;-75
2021/08/13 00:08:43;;;;;;;0.40;0.30;;;20.60;99.90;;;;;;5091065;28;20431;-75
2021/08/13 00:11:09;;;;;;;0.40;0.20;;;20.60;99.90;;;;;;5091218;28;20453;-75
2021/08/13 00:13:34;;;;;;;0.40;0.20;;;20.50;99.90;;;;;;5090395;28;20428;-75
2021/08/13 00:16:00;;;;;;;0.40;0.30;;;20.60;99.90;;;;;;5090890;28;20377;-75
2021/08/13 00:18:26;;;;;;;0.40;0.20;;;20.70;99.90;;;;;;5072239;28;20414;-75
2021/08/13 00:20:52;;;;;;;0.40;0.30;;;20.70;99.90;;;;;;5090630;28;20369;-75
2021/08/13 00:23:17;;;;;;;0.40;0.20;;;20.60;99.90;;;;;;5090426;28;20461;-76
2021/08/13 00:25:43;;;;;;;0.40;0.20;;;20.60;99.90;;;;;;5090826;28;20838;-75
2021/08/13 00:28:09;;;;;;;0.40;0.20;;;20.60;99.90;;;;;;5090615;28;20511;-75
2021/08/13 00:30:35;;;;;;;0.40;0.20;;;20.50;99.90;;;;;;5089856;28;20380;-75
2021/08/13 00:33:00;;;;;;;0.40;0.20;;;20.40;99.90;;;;;;5076280;28;20374;-75
2021/08/13 00:35:26;;;;;;;0.40;0.30;;;20.40;99.90;;;;;;5094183;28;20378;-74
2021/08/13 00:37:52;;;;;;;0.40;0.30;;;20.30;99.90;;;;;;5095082;28;20724;-74
2021/08/13 00:40:17;;;;;;;0.40;0.20;;;20.20;99.90;;;;;;5093832;28;20393;-74
2021/08/13 00:42:43;;;;;;;0.40;0.20;;;20.20;99.90;;;;;;5094504;28;20405;-74
2021/08/13 00:45:09;;;;;;;0.40;0.20;;;20.30;99.90;;;;;;5094564;28;20405;-74
2021/08/13 00:47:35;;;;;;;0.40;0.30;;;20.20;99.90;;;;;;5105179;28;20376;-77
2021/08/13 00:50:01;;;;;;;0.40;0.20;;;20.10;99.90;;;;;;5114957;28;20534;-76
2021/08/13 00:52:27;;;;;;;0.40;0.20;;;20.20;99.90;;;;;;5113898;28;20856;-74
2021/08/13 00:54:53;;;;;;;0.40;0.20;;;20.20;99.90;;;;;;5114435;28;20373;-74
2021/08/13 00:57:20;;;;;;;0.40;0.30;;;20.20;99.90;;;;;;5114058;28;20411;-74
2021/08/13 00:59:47;;;;;;;0.40;0.20;;;20.20;99.90;;;;;;5114696;28;20396;-74
2021/08/13 01:02:12;;;;;;;0.40;0.20;;;20.30;99.90;;;;;;5114594;28;20372;-76
2021/08/13 01:04:38;;;;;;;0.40;0.20;;;20.30;99.90;;;;;;5113914;28;20396;-74
2021/08/13 01:07:07;;;;;;;0.40;0.30;;;20.20;99.90;;;;;;5114158;28;20430;-74
2021/08/13 01:09:34;;;;;;;0.40;0.20;;;20.20;99.90;;;;;;5113726;28;20395;-74
2021/08/13 01:12:01;;;;;;;0.40;0.20;;;20.10;99.90;;;;;;5114460;28;20436;-74
2021/08/13 01:14:52;;;;;;;0.40;0.20;;;20.20;99.90;;;;;;5113809;28;20377;-74
2021/08/13 01:17:21;;;;;;;0.40;0.20;;;20.10;99.90;;;;;;5096580;28;20411;-76
2021/08/13 01:20:17;;;;;;;0.40;0.20;;;20.10;99.90;;;;;;5094057;28;20385;-76
2021/08/13 01:23:09;;;;;;;0.40;0.20;;;20.20;99.90;;;;;;5093931;28;20372;-76
2021/08/13 01:25:39;;;;;;;0.40;0.30;;;20.10;99.90;;;;;;5092808;28;20434;-75
2021/08/13 01:28:33;;;;;;;0.40;0.20;;;20.10;99.90;;;;;;5093215;28;20385;-75
2021/08/13 01:31:04;;;;;;;0.40;0.20;;;20.10;99.90;;;;;;5080616;28;20573;-74
2021/08/13 01:33:31;;;;;;;0.40;0.30;;;20.10;99.90;;;;;;5092809;28;20784;-75
2021/08/13 01:35:59;;;;;;;0.40;0.20;;;20.10;99.90;;;;;;5093938;28;20412;-75
2021/08/13 01:38:28;;;;;;;0.40;0.20;;;20.10;99.90;;;;;;5092640;28;20847;-74
2021/08/13 01:40:59;;;;;;;0.40;0.30;;;20.10;99.90;;;;;;5093724;28;20413;-75
2021/08/13 01:43:27;;;;;;;0.40;0.30;;;20.00;99.90;;;;;;5091859;28;20778;-75
2021/08/13 01:45:53;;;;;;;0.40;0.20;;;20.00;99.90;;;;;;5093733;28;20473;-75
2021/08/13 01:48:20;;;;;;;0.40;0.20;;;19.90;99.90;;;;;;5092314;28;20382;-74
2021/08/13 01:50:47;;;;;;;0.40;0.20;;;19.90;99.90;;;;;;5093119;28;20398;-75
2021/08/13 01:53:14;;;;;;;0.40;0.20;;;19.90;99.90;;;;;;5093191;28;20370;-74
2021/08/13 01:55:41;;;;;;;0.40;0.20;;;19.90;99.90;;;;;;5092358;28;20833;-74
2021/08/13 01:58:06;;;;;;;0.40;0.20;;;19.90;99.90;;;;;;5093104;28;20461;-75
2021/08/13 02:00:33;;;;;;;0.40;0.20;;;19.90;99.90;;;;;;5092511;28;20462;-74
2021/08/13 02:03:01;;;;;;;0.40;0.20;;;19.90;99.90;;;;;;5092914;28;20378;-75
2021/08/13 02:05:29;;;;;;;0.40;0.20;;;19.80;99.90;;;;;;5092333;28;20394;-75
2021/08/13 02:07:56;;;;;;;0.40;0.20;;;19.80;99.90;;;;;;5092844;28;20707;-75
2021/08/13 02:10:23;;;;;;;0.40;0.20;;;19.80;99.90;;;;;;5092054;28;20386;-75
2021/08/13 02:12:48;;;;;;;0.40;0.20;;;19.70;99.90;;;;;;5092563;28;20378;-75
2021/08/13 02:15:14;;;;;;;0.40;0.20;;;19.70;99.90;;;;;;5092907;28;20458;-75
2021/08/13 02:18:06;;;;;;;0.40;0.20;;;19.70;99.90;;;;;;5092022;28;20913;-74
2021/08/13 02:20:33;;;;;;;0.40;0.20;;;19.60;99.90;;;;;;5091916;28;20373;-74
2021/08/13 02:22:59;;;;;;;0.40;0.20;;;19.50;99.90;;;;;;5092680;28;20385;-75
2021/08/13 02:25:25;;;;;;;0.40;0.25;;;19.40;99.90;;;;;;5091974;28;20406;-75
2021/08/13 02:27:51;;;;;;;0.40;0.20;;;19.40;99.90;;;;;;5092418;28;20394;-74
2021/08/13 02:30:17;;;;;;;0.40;0.30;;;19.40;99.90;;;;;;5092367;28;20382;-74
2021/08/13 02:32:43;;;;;;;0.40;0.20;;;19.50;99.90;;;;;;5092168;28;20370;-74
2021/08/13 02:35:09;;;;;;;0.40;0.30;;;19.50;99.90;;;;;;5102245;28;20421;-75
2021/08/13 02:37:48;;;;;;;0.40;0.30;;;19.40;99.90;;;;;;5112162;28;20368;-75
2021/08/13 02:40:30;;;;;;;0.40;0.30;;;19.40;99.90;;;;;;5112803;28;20849;-75
2021/08/13 02:43:19;;;;;;;0.40;0.20;;;19.30;99.90;;;;;;5112636;28;20375;-75
2021/08/13 02:45:47;;;;;;;0.40;0.20;;;19.20;99.90;;;;;;5112822;28;20400;-77
2021/08/13 02:48:15;;;;;;;0.40;0.30;;;19.30;99.90;;;;;;5112776;28;20373;-76
2021/08/13 02:50:42;;;;;;;0.40;0.20;;;19.30;99.90;;;;;;5112169;28;20467;-77
2021/08/13 02:53:10;;;;;;;0.40;0.20;;;19.30;99.90;;;;;;5112475;28;20380;-76
2021/08/13 02:56:04;;;;;;;0.40;0.20;;;19.30;99.90;;;;;;5111783;28;20380;-74
2021/08/13 02:58:54;;;;;;;0.40;0.20;;;19.30;99.90;;;;;;5111792;28;20372;-74
2021/08/13 03:01:25;;;;;;;0.40;0.20;;;19.30;99.90;;;;;;5112441;28;20739;-74
2021/08/13 03:03:52;;;;;;;0.40;0.30;;;19.20;99.90;;;;;;5112008;28;20442;-74
2021/08/13 03:06:22;;;;;;;0.40;0.20;;;19.30;99.90;;;;;;5112306;28;20400;-74
2021/08/13 03:08:50;;;;;;;0.47;0.28;;;19.30;99.90;;;;;;5111885;28;20376;-74
2021/08/13 03:11:17;;;;;;;0.40;0.30;;;19.20;99.90;;;;;;5112337;28;20388;-74
2021/08/13 03:13:44;;;;;;;0.40;0.20;;;19.30;99.90;;;;;;5111541;28;20380;-74
2021/08/13 03:16:11;;;;;;;0.40;0.20;;;19.10;99.90;;;;;;5104686;28;20380;-74
2021/08/13 03:18:39;;;;;;;0.40;0.20;;;19.20;99.90;;;;;;5091145;28;20363;-74
2021/08/13 03:21:05;;;;;;;0.40;0.20;;;19.20;99.90;;;;;;5091806;28;20702;-74
2021/08/13 03:23:31;;;;;;;0.40;0.20;;;19.40;99.90;;;;;;5090721;28;20369;-74
2021/08/13 03:25:57;;;;;;;0.40;0.20;;;19.40;99.90;;;;;;5091292;28;20892;-74
2021/08/13 03:28:23;;;;;;;0.40;0.20;;;19.50;99.90;;;;;;5072315;28;20741;-74
2021/08/13 03:30:48;;;;;;;0.40;0.30;;;19.30;99.90;;;;;;5091324;28;20377;-74
2021/08/13 03:33:16;;;;;;;0.40;0.20;;;19.40;99.90;;;;;;5091072;28;20373;-74
2021/08/13 03:35:43;;;;;;;0.40;0.20;;;19.30;99.90;;;;;;5090808;28;20386;-74
2021/08/13 03:38:09;;;;;;;0.40;0.30;;;19.30;99.90;;;;;;5073246;28;20387;-74
2021/08/13 03:40:35;;;;;;;0.40;0.28;;;19.40;99.90;;;;;;5090901;28;20543;-74
2021/08/13 03:43:02;;;;;;;0.40;0.20;;;19.40;99.90;;;;;;5091011;28;20869;-74
2021/08/13 03:45:28;;;;;;;0.40;0.20;;;19.50;99.90;;;;;;5090591;28;20481;-74
2021/08/13 03:47:53;;;;;;;0.40;0.30;;;19.40;99.90;;;;;;5091114;28;20780;-74
2021/08/13 03:50:19;;;;;;;0.40;0.30;;;19.50;99.90;;;;;;5091258;28;20454;-75
2021/08/13 03:52:45;;;;;;;0.40;0.28;;;19.50;99.90;;;;;;5090613;28;20515;-74
2021/08/13 03:55:14;;;;;;;0.40;0.20;;;19.50;99.90;;;;;;5091272;28;20382;-74
2021/08/13 03:57:41;;;;;;;0.40;0.20;;;19.50;99.90;;;;;;5090461;28;20457;-74
2021/08/13 04:00:09;;;;;;;0.40;0.30;;;19.60;99.90;;;;;;5091522;28;20427;-74
2021/08/13 04:02:34;;;;;;;0.40;0.25;;;19.60;99.90;;;;;;5090801;28;20378;-74
2021/08/13 04:05:00;;;;;;;0.40;0.20;;;19.50;99.90;;;;;;5091377;28;20740;-74
2021/08/13 04:07:26;;;;;;;0.40;0.20;;;19.40;99.90;;;;;;5093147;28;20378;-73
2021/08/13 04:09:51;;;;;;;0.40;0.20;;;19.40;99.90;;;;;;5095808;28;20423;-74
2021/08/13 04:12:17;;;;;;;0.40;0.30;;;19.40;99.90;;;;;;5095593;28;20714;-74
2021/08/13 04:14:42;;;;;;;0.40;0.20;;;19.40;99.90;;;;;;5094526;28;20857;-74
2021/08/13 04:17:08;;;;;;;0.40;0.20;;;19.40;99.90;;;;;;5095703;28;20385;-74
2021/08/13 04:19:34;;;;;;;0.40;0.20;;;19.50;99.90;;;;;;5094419;28;20461;-74
2021/08/13 04:22:01;;;;;;;0.40;0.20;;;19.40;99.90;;;;;;5095456;28;20846;-74
2021/08/13 04:24:27;;;;;;;0.40;0.20;;;19.40;99.90;;;;;;5094633;28;20412;-74
2021/08/13 04:26:53;;;;;;;0.40;0.20;;;19.50;99.90;;;;;;5095351;28;20378;-74
2021/08/13 04:29:19;;;;;;;0.40;0.20;;;19.40;99.90;;;;;;5095264;28;20404;-74
2021/08/13 04:31:44;;;;;;;0.40;0.30;;;19.40;99.90;;;;;;5094267;28;20451;-74
2021/08/13 04:34:10;;;;;;;0.40;0.20;;;19.50;99.90;;;;;;5095069;28;20382;-74
2021/08/13 04:36:36;;;;;;;0.40;0.20;;;19.40;99.90;;;;;;5094294;28;20392;-74
2021/08/13 04:39:02;;;;;;;0.40;0.20;;;19.40;99.90;;;;;;5094869;28;20406;-74
2021/08/13 04:41:27;;;;;;;0.40;0.20;;;19.50;99.90;;;;;;5094229;28;20380;-74
2021/08/13 04:43:53;;;;;;;0.40;0.20;;;19.50;99.90;;;;;;5094770;28;20382;-74
2021/08/13 04:46:18;;;;;;;0.40;0.30;;;19.60;99.90;;;;;;5094725;28;20374;-74
2021/08/13 04:48:44;;;;;;;0.40;0.30;;;19.60;99.90;;;;;;5094048;28;20700;-74
2021/08/13 04:51:10;;;;;;;0.40;0.20;;;19.80;99.90;;;;;;5094787;28;20374;-74
2021/08/13 04:53:35;;;;;;;0.40;0.20;;;19.80;99.90;;;;;;5093905;28;20780;-74
2021/08/13 04:56:01;;;;;;;0.40;0.20;;;19.80;99.90;;;;;;5094543;28;20461;-74
2021/08/13 04:58:27;;;;;;;0.40;0.20;;;19.70;99.90;;;;;;5094282;28;20765;-74
2021/08/13 05:00:53;;;;;;;0.40;0.20;;;19.80;99.90;;;;;;5094165;28;20373;-74
2021/08/13 05:03:18;;;;;;;0.40;0.20;;;19.90;99.90;;;;;;5094459;28;20555;-74
2021/08/13 05:05:44;;;;;;;0.40;0.20;;;19.80;99.90;;;;;;5093489;28;20406;-74
2021/08/13 05:08:09;;;;;;;0.40;0.20;;;19.90;99.90;;;;;;5094342;28;20446;-74
2021/08/13 05:10:38;;;;;;;0.40;0.20;;;19.90;99.90;;;;;;5093969;28;20420;-75
2021/08/13 05:13:04;;;;;;;0.40;0.30;;;20.00;99.90;;;;;;5094232;28;20428;-75
2021/08/13 05:15:30;;;;;;;0.40;0.20;;;20.10;99.90;;;;;;5075505;28;20410;-74
2021/08/13 05:17:55;;;;;;;0.40;0.20;;;20.00;99.90;;;;;;5092628;28;20382;-75
2021/08/13 05:20:21;;;;;;;0.40;0.30;;;20.00;99.90;;;;;;5093777;28;20374;-74
2021/08/13 05:22:47;;;;;;;0.40;0.20;;;20.00;99.90;;;;;;5093435;28;20374;-74
2021/08/13 05:25:14;;;;;;;0.40;0.20;;;19.90;99.90;;;;;;5094164;28;20439;-75
2021/08/13 05:27:40;;;;;;;0.40;0.30;;;20.00;99.90;;;;;;5093163;28;20413;-75
2021/08/13 05:30:07;;;;;;;0.40;0.30;;;19.90;99.90;;;;;;5078392;28;20424;-75
2021/08/13 05:32:40;;;;;;;0.40;0.30;;;20.00;99.90;;;;;;5106179;28;20391;-75
2021/08/13 05:35:07;;;;;;;0.40;0.20;;;20.00;99.90;;;;;;5098843;28;20382;-75
2021/08/13 05:37:33;;;;;;;0.40;0.20;;;20.10;99.90;;;;;;5095835;28;20459;-75
2021/08/13 05:39:59;;;;;;;0.40;0.23;;;20.10;99.90;;;;;;5102685;27;20854;-75
2021/08/13 05:42:24;;;;;;;0.40;0.20;;;20.20;99.90;;;;;;5097855;28;20609;-75
2021/08/13 05:44:50;;;;;;;0.40;0.30;;;20.00;99.90;;;;;;5094651;28;20497;-75
2021/08/13 05:47:15;;;;;;;0.40;0.23;;;20.20;99.90;;;;;;5095155;28;20366;-75
2021/08/13 05:49:41;;;;;;;0.40;0.30;;;20.20;99.90;;;;;;5095040;28;20779;-75
2021/08/13 05:52:07;;;;;;;0.40;0.30;;;20.10;99.90;;;;;;5095354;28;20579;-75
2021/08/13 05:54:33;;;;;;;0.40;0.30;;;20.20;99.90;;;;;;5094818;28;20377;-75
2021/08/13 05:56:58;;;;;;;0.40;0.30;;;20.20;99.90;;;;;;5075114;28;20461;-75
2021/08/13 05:59:24;;;;;;;0.40;0.20;;;20.20;99.90;;;;;;5093586;28;20397;-76
2021/08/13 06:01:50;;;;;;;0.40;0.30;;;20.30;99.90;;;;;;5099221;28;20627;-76
2021/08/13 06:04:15;;;;;;;0.40;0.20;;;20.30;99.90;;;;;;5097998;28;20486;-76
2021/08/13 06:06:43;;;;;;;0.40;0.30;;;20.50;99.90;;;;;;5092280;28;20457;-76
2021/08/13 06:09:09;;;;;;;0.40;0.20;;;20.50;99.90;;;;;;5092781;28;20448;-76
2021/08/13 06:11:34;;;;;;;0.40;0.20;;;20.80;99.90;;;;;;5092157;28;20375;-75
2021/08/13 06:14:00;;;;;;;0.40;0.20;;;20.90;99.90;;;;;;5092802;28;20880;-76
2021/08/13 06:16:26;;;;;;;0.40;0.30;;;20.90;99.90;;;;;;5092431;28;20375;-75
2021/08/13 06:18:51;;;;;;;0.40;0.30;;;20.90;99.90;;;;;;5091918;28;20420;-76
2021/08/13 06:21:17;;;;;;;0.40;0.20;;;21.00;99.90;;;;;;5093056;28;20537;-76
2021/08/13 06:23:42;;;;;;;0.40;0.30;;;21.10;99.90;;;;;;5092281;28;20374;-75
2021/08/13 06:26:09;;;;;;;0.40;0.20;;;21.10;99.90;;;;;;5092491;28;20371;-75
2021/08/13 06:28:35;;;;;;;0.40;0.20;;;21.20;99.90;;;;;;5092087;28;20402;-76
2021/08/13 06:31:01;;;;;;;0.40;0.30;;;21.10;99.90;;;;;;5092481;28;20374;-76
2021/08/13 06:33:27;;;;;;;0.40;0.30;;;21.20;99.90;;;;;;5092858;28;20367;-76
2021/08/13 06:35:52;;;;;;;0.40;0.20;;;21.20;99.90;;;;;;5092074;28;20382;-75
2021/08/13 06:38:18;;;;;;;0.40;0.30;;;21.30;99.90;;;;;;5092570;28;20382;-76
2021/08/13 06:40:44;;;;;;;0.40;0.30;;;21.30;99.90;;;;;;5092135;28;20487;-74
2021/08/13 06:43:09;;;;;;;0.40;0.20;;;21.50;99.90;;;;;;5092735;28;20435;-75
2021/08/13 06:45:35;;;;;;;0.40;0.20;;;21.40;99.90;;;;;;5092176;28;20512;-75
2021/08/13 06:48:01;;;;;;;0.40;0.30;;;21.40;99.90;;;;;;5092842;28;20385;-75
2021/08/13 06:50:26;;;;;;;0.40;0.20;;;21.50;99.90;;;;;;5092063;28;20378;-75
2021/08/13 06:52:52;;;;;;;0.40;0.20;;;21.50;99.90;;;;;;5092105;28;20373;-75
2021/08/13 06:55:18;;;;;;;0.40;0.20;;;21.60;99.90;;;;;;5092363;28;20374;-75
2021/08/13 06:57:43;;;;;;;0.40;0.30;;;21.60;99.90;;;;;;5091772;28;20406;-75
2021/08/13 07:00:11;;;;;;;0.40;0.20;;;21.50;99.90;;;;;;5092356;28;20413;-75
2021/08/13 07:02:37;;;;;;;0.40;0.30;;;21.60;99.90;;;;;;5091352;28;20870;-75
2021/08/13 07:05:04;;;;;;;0.40;0.20;;;21.70;99.90;;;;;;5091825;28;21058;-75
2021/08/13 07:07:32;;;;;;;0.40;0.30;;;21.80;99.90;;;;;;5092328;28;20742;-76
2021/08/13 07:10:02;;;;;;;0.40;0.20;;;21.90;99.90;;;;;;5091186;28;20421;-75
2021/08/13 07:12:28;;;;;;;0.40;0.20;;;22.20;99.90;;;;;;5092418;28;20447;-75
2021/08/13 07:14:54;;;;;;;0.40;0.20;;;22.30;99.90;;;;;;5091418;28;20745;-75
2021/08/13 07:17:19;;;;;;;0.40;0.30;;;22.30;99.90;;;;;;5091948;28;20378;-75
2021/08/13 07:19:45;;;;;;;0.40;0.20;;;22.70;99.90;;;;;;5091324;28;20378;-75
2021/08/13 07:22:11;;;;;;;0.40;0.20;;;22.50;99.90;;;;;;5090993;28;20370;-75
2021/08/13 07:24:36;;;;;;;0.40;0.30;;;22.70;99.90;;;;;;5090523;28;20398;-76
2021/08/13 07:27:02;;;;;;;0.40;0.20;;;22.60;99.90;;;;;;5091584;28;20480;-75
2021/08/13 07:29:28;;;;;;;0.40;0.20;;;22.70;99.90;;;;;;5091061;28;20524;-74
2021/08/13 07:31:55;;;;;;;0.40;0.20;;;22.80;99.90;;;;;;5090721;28;20377;-75
2021/08/13 07:34:22;;;;;;;0.40;0.20;;;22.80;99.90;;;;;;5091324;28;20386;-75
2021/08/13 07:36:47;;;;;;;0.40;0.20;;;22.90;99.90;;;;;;5090666;28;20374;-76
2021/08/13 07:39:13;;;;;;;0.40;0.20;;;23.10;99.90;;;;;;5091505;28;20378;-77
2021/08/13 07:41:39;;;;;;;0.40;0.20;;;23.10;99.90;;;;;;5089681;28;20366;-74
2021/08/13 07:44:05;;;;;;;0.40;0.20;;;23.30;99.90;;;;;;5091142;28;20481;-77
2021/08/13 07:46:30;;;;;;;0.40;0.30;;;23.10;99.90;;;;;;5090871;28;20370;-75
2021/08/13 07:48:56;;;;;;;0.40;0.20;;;23.50;99.90;;;;;;5090744;28;20813;-77
2021/08/13 07:51:22;;;;;;;0.40;0.30;;;23.50;99.90;;;;;;5091076;28;20378;-75
2021/08/13 07:53:47;;;;;;;0.40;0.20;;;23.80;99.90;;;;;;5090535;28;20707;-75
2021/08/13 07:56:13;;;;;;;0.40;0.20;;;23.70;99.90;;;;;;5091084;28;20374;-75
2021/08/13 07:58:39;;;;;;;0.40;0.20;;;23.80;99.90;;;;;;5091352;28;20463;-74
2021/08/13 08:01:04;;;;;;;0.40;0.30;;;24.10;99.90;;;;;;5094276;28;20366;-75
2021/08/13 08:03:30;;;;;;;0.40;0.30;;;24.40;99.90;;;;;;5110610;28;20427;-74
2021/08/13 08:05:56;;;;;;;0.40;0.20;;;24.70;99.90;;;;;;5095042;28;20417;-74
2021/08/13 08:08:21;;;;;;;0.40;0.30;;;25.00;99.90;;;;;;5102076;28;20422;-75
2021/08/13 08:10:47;;;;;;;0.40;0.30;;;25.10;99.90;;;;;;5092881;28;20821;-75
2021/08/13 08:13:14;;;;;;;0.40;0.20;;;25.10;99.90;;;;;;5090413;28;20897;-75
2021/08/13 08:15:41;;;;;;;0.40;0.20;;;25.00;99.90;;;;;;5090974;28;20495;-74
2021/08/13 08:18:07;;;;;;;0.70;0.70;;;25.10;99.90;;;;;;5090485;28;20378;-74
2021/08/13 08:20:32;;;;;;;0.40;0.20;;;24.90;99.90;;;;;;5091077;28;20465;-76
2021/08/13 08:22:58;;;;;;;0.40;0.30;;;25.00;99.90;;;;;;5089788;28;20469;-77
2021/08/13 08:25:23;;;;;;;0.40;0.30;;;25.00;99.90;;;;;;5091084;28;20406;-76
2021/08/13 08:27:49;;;;;;;0.40;0.20;;;25.10;99.90;;;;;;5090563;28;20409;-76
2021/08/13 08:30:15;;;;;;;0.40;0.20;;;25.20;99.90;;;;;;5091214;28;20952;-77
2021/08/13 08:32:41;;;;;;;0.40;0.30;;;25.40;99.90;;;;;;5090339;28;20469;-75
2021/08/13 08:35:06;;;;;;;0.40;0.20;;;25.40;99.90;;;;;;5104861;28;20380;-75
2021/08/13 08:37:32;;;;;;;0.40;0.30;;;25.50;99.90;;;;;;5111293;28;20375;-76
2021/08/13 08:40:00;;;;;;;0.40;0.30;;;25.50;99.90;;;;;;5109933;28;20525;-75
2021/08/13 08:42:26;;;;;;;0.40;0.30;;;25.60;99.90;;;;;;5111380;28;20380;-76
2021/08/13 08:44:51;;;;;;;0.40;0.20;;;25.50;99.90;;;;;;5110632;28;20404;-76
2021/08/13 08:47:21;;;;;;;0.40;0.20;;;25.60;99.90;;;;;;5111168;28;20393;-76
2021/08/13 08:49:49;;;;;;;0.40;0.20;;;25.60;99.90;;;;;;5096019;28;20422;-76
2021/08/13 08:52:17;;;;;;;0.40;0.30;;;25.90;99.90;;;;;;5090699;28;20882;-76
2021/08/13 08:54:43;;;;;;;0.40;0.30;;;25.50;99.90;;;;;;5074559;28;20431;-76
2021/08/13 08:57:11;;;;;;;0.40;0.20;;;25.40;99.60;;;;;;5093319;28;20851;-75
2021/08/13 08:59:36;;;;;;;0.40;0.30;;;25.80;99.70;;;;;;5094803;28;20425;-75
2021/08/13 09:02:02;;;;;;;0.40;0.30;;;25.80;99.90;;;;;;5095455;28;20877;-76
2021/08/13 09:04:28;;;;;;;0.40;0.20;;;26.00;98.50;;;;;;5095692;28;20402;-76
2021/08/13 09:06:54;;;;;;;0.40;0.30;;;26.20;99.50;;;;;;5094540;28;20389;-76
2021/08/13 09:09:20;;;;;;;0.40;0.20;;;26.00;99.90;;;;;;5096379;28;20394;-76
2021/08/13 09:11:46;;;;;;;0.40;0.30;;;26.10;99.30;;;;;;5094910;28;20435;-75
2021/08/13 09:14:13;;;;;;;0.40;0.30;;;26.00;98.80;;;;;;5097985;28;20385;-76
2021/08/13 09:16:58;;;;;;;0.40;0.20;;;26.80;99.90;;;;;;5074280;28;20746;-77
2021/08/13 09:19:48;;;;;;;0.40;0.30;;;26.00;99.90;;;;;;5111134;28;20382;-77
2021/08/13 09:22:17;;;;;;;0.40;0.30;;;26.30;98.00;;;;;;5104081;28;20384;-76
2021/08/13 09:24:44;;;;;;;0.40;0.20;;;26.30;98.30;;;;;;5099369;28;20406;-74
2021/08/13 09:27:24;;;;;;;0.40;0.20;;;26.60;99.90;;;;;;5110286;28;20853;-77
2021/08/13 09:30:17;;;;;;;0.40;0.20;;;26.50;97.80;;;;;;5099291;28;20491;-75
2021/08/13 09:32:55;;;;;;;0.40;0.20;;;26.40;97.90;;;;;;5099256;28;20397;-76
2021/08/13 09:35:36;;;;;;;0.40;0.20;;;26.20;99.20;;;;;;5113308;28;20865;-76
2021/08/13 09:38:03;;;;;;;0.40;0.30;;;26.60;97.90;;;;;;5113561;28;20700;-76
2021/08/13 09:40:37;;;;;;;0.40;0.30;;;26.60;99.90;;;;;;5099668;28;20436;-76
2021/08/13 09:43:03;;;;;;;0.40;0.30;;;26.50;98.20;;;;;;5093095;28;20398;-76
2021/08/13 09:45:30;;;;;;;0.40;0.20;;;26.70;98.70;;;;;;5093605;28;20405;-76
2021/08/13 09:47:56;;;;;;;0.40;0.20;;;26.60;99.70;;;;;;5058313;28;20394;-74
2021/08/13 09:50:34;;;;;;;0.40;0.30;;;26.70;98.30;;;;;;5093329;28;20892;-74
2021/08/13 09:53:14;;;;;;;0.40;0.30;;;26.90;98.80;;;;;;5092869;28;20771;-75
2021/08/13 09:55:41;;;;;;;0.40;0.30;;;26.60;98.20;;;;;;5093606;28;20463;-74
2021/08/13 09:58:09;;;;;;;0.40;0.20;;;26.60;98.50;;;;;;5092815;28;20414;-75
2021/08/13 10:00:54;;;;;;;0.40;0.20;;;26.70;98.80;;;;;;5093428;28;20374;-74
2021/08/13 10:03:20;;;;;;;0.40;0.20;;;26.80;97.90;;;;;;5093017;28;20846;-74
2021/08/13 10:06:02;;;;;;;0.40;0.27;;;27.10;98.40;;;;;;5092323;28;20409;-75
2021/08/13 10:08:48;;;;;;;0.40;0.30;;;27.30;99.90;;;;;;5093626;28;20418;-75
2021/08/13 10:11:14;;;;;;;0.40;0.20;;;27.40;96.80;;;;;;5092843;28;20498;-74
2021/08/13 10:13:42;;;;;;;0.40;0.20;;;27.40;96.50;;;;;;5093018;28;20378;-75
2021/08/13 10:16:07;;;;;;;0.40;0.30;;;27.40;96.40;;;;;;5092449;28;20420;-75
2021/08/13 10:18:36;;;;;;;0.60;0.60;;;27.40;96.50;;;;;;5093121;28;20866;-74
2021/08/13 10:21:01;;;;;;;0.40;0.30;;;27.40;97.50;;;;;;5092780;28;20378;-74
2021/08/13 10:23:28;;;;;;;0.40;0.30;;;27.40;97.90;;;;;;5070998;28;20439;-75
2021/08/13 10:25:55;;;;;;;0.40;0.30;;;27.60;97.00;;;;;;5091356;28;20414;-74
2021/08/13 10:28:21;;;;;;;0.40;0.20;;;27.50;97.40;;;;;;5105292;27;20778;-74
2021/08/13 10:30:48;;;;;;;0.40;0.30;;;27.60;96.90;;;;;;5092815;28;20501;-74
2021/08/13 10:33:14;;;;;;;0.40;0.20;;;27.50;96.40;;;;;;5090367;28;20839;-74
2021/08/13 10:35:57;;;;;;;0.40;0.20;;;28.10;96.70;;;;;;5091143;28;20743;-74
2021/08/13 10:38:25;;;;;;;0.40;0.30;;;28.20;95.20;;;;;;5088482;28;20383;-74
2021/08/13 10:40:51;;;;;;;0.40;0.30;;;28.00;95.80;;;;;;5090776;28;20406;-75
2021/08/13 10:43:19;;;;;;;0.40;0.30;;;28.20;96.20;;;;;;5091932;28;20394;-74
2021/08/13 10:45:48;;;;;;;0.40;0.30;;;28.00;97.30;;;;;;5091650;28;20727;-75
2021/08/13 10:48:18;;;;;;;0.40;0.30;;;28.40;95.50;;;;;;5088985;28;20386;-75
2021/08/13 10:50:44;;;;;;;0.40;0.20;;;28.30;96.60;;;;;;5092081;28;20373;-74
2021/08/13 10:53:35;;;;;;;0.40;0.30;;;28.50;94.10;;;;;;5091091;28;20873;-74
2021/08/13 10:56:03;;;;;;;0.40;0.30;;;28.30;94.70;;;;;;5089760;28;20389;-74
2021/08/13 10:58:41;;;;;;;0.40;0.30;;;28.50;94.80;;;;;;5091373;28;20846;-74
2021/08/13 11:01:12;;;;;;;0.40;0.28;;;28.60;95.50;;;;;;5091551;28;20946;-74
2021/08/13 11:03:43;;;;;;;0.40;0.20;;;28.50;94.90;;;;;;5089746;28;20382;-75
2021/08/13 11:06:09;;;;;;;0.40;0.30;;;28.70;94.60;;;;;;5073769;28;20547;-75
2021/08/13 11:08:40;;;;;;;0.40;0.20;;;28.90;95.00;;;;;;5091344;28;20839;-75
2021/08/13 11:11:10;;;;;;;0.40;0.20;;;28.90;95.70;;;;;;5091165;28;20447;-75
2021/08/13 11:13:38;;;;;;;0.40;0.20;;;28.90;94.50;;;;;;5088995;28;20427;-75
2021/08/13 11:16:31;;;;;;;0.40;0.30;;;28.50;94.20;;;;;;5090887;28;20892;-76
2021/08/13 11:18:57;;;;;;;0.40;0.30;;;28.80;94.60;;;;;;5088651;28;20381;-75
2021/08/13 11:21:39;;;;;;;0.40;0.20;;;28.90;94.00;;;;;;5091171;28;20604;-75
2021/08/13 11:24:07;;;;;;;0.40;0.30;;;29.00;93.30;;;;;;5089770;28;20379;-75
2021/08/13 11:26:52;;;;;;;0.40;0.20;;;29.20;94.10;;;;;;5091112;28;20374;-74
2021/08/13 11:29:30;;;;;;;0.40;0.30;;;29.20;93.80;;;;;;5089361;28;20409;-74
2021/08/13 11:32:00;;;;;;;0.40;0.20;;;29.30;94.30;;;;;;5088501;28;20394;-75
2021/08/13 11:34:44;;;;;;;0.40;0.20;;;29.30;92.40;;;;;;5091636;28;20383;-75
2021/08/13 11:37:43;;;;;;;0.40;0.20;;;29.30;92.40;;;;;;5091017;28;20424;-73
2021/08/13 11:40:12;;;;;;;0.40;0.20;;;29.20;93.60;;;;;;5090669;28;20394;-76
2021/08/13 11:42:45;;;;;;;0.40;0.20;;;29.30;93.40;;;;;;5091833;28;20797;-76
2021/08/13 11:45:11;;;;;;;0.40;0.30;;;29.40;93.30;;;;;;5090157;28;20807;-75
2021/08/13 11:47:37;;;;;;;0.40;0.25;;;29.60;92.60;;;;;;5090849;28;20413;-74
2021/08/13 11:50:07;;;;;;;0.40;0.30;;;29.70;92.00;;;;;;5090490;28;20465;-76
2021/08/13 11:52:36;;;;;;;0.40;0.30;;;30.20;91.10;;;;;;5071617;28;20391;-76
2021/08/13 11:55:21;;;;;;;0.50;0.30;;;30.30;92.30;;;;;;5085035;28;20738;-74
2021/08/13 11:57:47;;;;;;;1.40;0.50;;;29.90;91.10;;;;;;5091176;28;20426;-76
2021/08/13 12:00:17;;;;;;;0.40;0.30;;;30.20;90.60;;;;;;5090783;28;20382;-73
2021/08/13 12:02:42;;;;;;;0.40;0.20;;;30.10;91.10;;;;;;5082293;28;20397;-73
2021/08/13 12:05:10;;;;;;;0.40;0.30;;;30.50;90.30;;;;;;5078593;28;21253;-73
2021/08/13 12:07:37;;;;;;;0.40;0.20;;;30.60;90.80;;;;;;5078221;28;20418;-73
2021/08/13 12:10:15;;;;;;;0.40;0.20;;;30.60;90.20;;;;;;5076671;28;20429;-74
2021/08/13 12:12:44;;;;;;;0.40;0.30;;;30.20;87.90;;;;;;5077576;28;20385;-73
2021/08/13 12:15:12;;;;;;;0.40;0.30;;;30.70;90.30;;;;;;5077763;28;20396;-73
2021/08/13 12:17:38;;;;;;;0.40;0.30;;;30.70;90.40;;;;;;5078123;28;20390;-73
2021/08/13 12:20:07;;;;;;;0.40;0.20;;;31.00;90.50;;;;;;5075743;28;20906;-74
2021/08/13 12:22:40;;;;;;;0.40;0.20;;;31.10;89.10;;;;;;5074363;28;20393;-74
2021/08/13 12:25:11;;;;;;;0.40;0.20;;;30.40;86.20;;;;;;5076381;28;20462;-76
2021/08/13 12:27:41;;;;;;;0.40;0.20;;;30.60;85.60;;;;;;5077803;28;20397;-74
2021/08/13 12:30:21;;;;;;;0.40;0.20;;;31.10;84.50;;;;;;5079876;28;20416;-74
2021/08/13 12:32:48;;;;;;;0.40;0.20;;;30.90;87.70;;;;;;5080946;28;20448;-75
2021/08/13 12:35:14;;;;;;;0.40;0.30;;;30.70;85.40;;;;;;5080371;28;20936;-74
2021/08/13 12:37:41;;;;;;;0.40;0.20;;;31.20;85.20;;;;;;5089678;28;20725;-75
2021/08/13 12:40:10;;;;;;;0.40;0.30;;;31.40;86.70;;;;;;5093230;28;20422;-75
2021/08/13 12:42:36;;;;;;;0.40;0.20;;;30.90;85.10;;;;;;5083350;28;20414;-73
2021/08/13 12:45:08;;;;;;;0.40;0.20;;;31.30;86.80;;;;;;5077627;28;20830;-76
2021/08/13 12:47:34;;;;;;;0.40;0.30;;;30.90;86.30;;;;;;5094539;28;20430;-75
2021/08/13 12:50:00;;;;;;;0.40;0.20;;;30.80;87.80;;;;;;5075030;28;20822;-75
2021/08/13 12:52:25;;;;;;;0.40;0.20;;;30.70;90.30;;;;;;5094420;28;20382;-76
2021/08/13 12:54:53;;;;;;;0.40;0.30;;;31.20;89.20;;;;;;5094627;28;20382;-74